createdAt,value
2018-07-12T00:02:13.786Z,20.00
2018-07-12T00:04:42.105Z,20.20
2018-07-12T00:07:10.409Z,20.30
2018-07-12T00:09:38.454Z,20.30
2018-07-12T00:12:06.522Z,20.50
2018-07-12T00:14:34.566Z,20.70
2018-07-12T00:17:02.614Z,20.80
2018-07-12T00:19:30.667Z,20.90
2018-07-12T00:21:58.714Z,20.90
2018-07-12T00:24:26.811Z,20.80
2018-07-12T00:26:54.851Z,20.80
2018-07-12T00:29:22.973Z,20.90
2018-07-12T00:31:51.286Z,21.10
2018-07-12T00:34:19.669Z,21.20
2018-07-12T00:36:47.749Z,21.30
2018-07-12T00:39:15.838Z,21.40
2018-07-12T00:41:43.881Z,21.50
2018-07-12T00:44:11.931Z,21.40
2018-07-12T00:46:40.321Z,21.40
2018-07-12T00:49:08.358Z,21.40
2018-07-12T00:51:36.418Z,21.20
2018-07-12T00:54:04.462Z,21.20
2018-07-12T00:56:32.506Z,21.20
2018-07-12T00:59:00.569Z,21.30
2018-07-12T01:01:28.672Z,21.40
2018-07-12T01:03:57.191Z,21.40
2018-07-12T01:06:25.253Z,21.50
2018-07-12T01:08:53.586Z,21.50
2018-07-12T01:11:21.630Z,21.60
2018-07-12T01:13:49.904Z,21.60
2018-07-12T01:16:17.995Z,21.70
2018-07-12T01:18:46.038Z,21.60
2018-07-12T01:21:14.125Z,21.70
2018-07-12T01:23:42.525Z,21.80
2018-07-12T01:26:10.564Z,21.80
2018-07-12T01:28:38.631Z,21.80
2018-07-12T01:31:06.666Z,21.80
2018-07-12T01:33:34.717Z,21.80
2018-07-12T01:36:02.826Z,21.80
2018-07-12T01:38:31.158Z,21.70
2018-07-12T01:40:59.533Z,21.70
2018-07-12T01:43:27.578Z,21.80
2018-07-12T01:45:55.616Z,21.90
2018-07-12T01:48:23.699Z,21.90
2018-07-12T01:50:51.745Z,22.00
2018-07-12T01:53:20.099Z,22.00
2018-07-12T01:55:48.445Z,22.30
2018-07-12T01:58:16.481Z,22.60
2018-07-12T02:00:44.931Z,23.00
2018-07-12T02:03:12.982Z,23.40
2018-07-12T02:05:41.125Z,23.70
2018-07-12T02:08:10.295Z,24.00
2018-07-12T02:10:38.805Z,24.30
2018-07-12T02:13:07.073Z,24.50
2018-07-12T02:15:35.129Z,24.70
2018-07-12T02:18:03.423Z,24.90
2018-07-12T02:20:31.460Z,25.10
2018-07-12T02:22:59.532Z,25.20
2018-07-12T02:25:27.569Z,25.40
2018-07-12T02:27:55.611Z,25.50
2018-07-12T02:30:23.680Z,25.50
2018-07-12T02:32:51.999Z,25.60
2018-07-12T02:35:20.367Z,25.70
2018-07-12T02:37:48.413Z,25.80
2018-07-12T02:40:16.729Z,25.80
2018-07-12T02:42:44.789Z,25.80
2018-07-12T02:45:13.386Z,25.90
2018-07-12T02:47:41.422Z,25.90
2018-07-12T02:50:09.470Z,25.90
2018-07-12T02:52:37.554Z,26.00
2018-07-12T02:55:05.595Z,26.00
2018-07-12T02:57:33.664Z,26.00
2018-07-12T03:00:01.752Z,26.00
2018-07-12T03:02:29.787Z,26.00
2018-07-12T03:04:58.758Z,26.00
2018-07-12T03:07:26.790Z,26.00
2018-07-12T03:09:54.828Z,26.00
2018-07-12T03:12:22.895Z,26.00
2018-07-12T03:14:51.261Z,26.00
2018-07-12T03:17:19.298Z,26.10
2018-07-12T03:19:47.611Z,26.10
2018-07-12T03:22:15.638Z,26.10
2018-07-12T03:24:43.896Z,26.10
2018-07-12T03:27:11.982Z,26.00
2018-07-12T03:29:40.050Z,26.00
2018-07-12T03:32:08.104Z,26.00
2018-07-12T03:34:36.451Z,26.00
2018-07-12T03:37:04.498Z,26.00
2018-07-12T03:39:32.530Z,26.00
2018-07-12T03:42:00.563Z,26.00
2018-07-12T03:44:28.627Z,26.00
2018-07-12T03:46:56.906Z,26.10
2018-07-12T03:49:24.943Z,26.10
2018-07-12T03:51:52.994Z,26.10
2018-07-12T03:54:21.030Z,26.10
2018-07-12T03:56:49.066Z,26.00
2018-07-12T03:59:17.106Z,26.00
2018-07-12T04:01:45.149Z,26.00
2018-07-12T04:04:13.200Z,26.00
2018-07-12T04:06:41.529Z,26.00
2018-07-12T04:09:09.721Z,26.00
2018-07-12T04:11:37.812Z,26.00
2018-07-12T04:14:06.342Z,26.00
2018-07-12T04:16:34.667Z,26.00
2018-07-12T04:19:02.694Z,26.00
2018-07-12T04:21:30.724Z,26.00
2018-07-12T04:23:58.782Z,26.00
2018-07-12T04:26:26.810Z,26.00
2018-07-12T04:28:54.874Z,26.00
2018-07-12T04:33:51.445Z,26.00
2018-07-12T04:36:19.491Z,26.00
2018-07-12T04:38:47.832Z,26.00
2018-07-12T04:41:15.869Z,26.00
2018-07-12T04:43:43.926Z,26.00
2018-07-12T04:46:12.324Z,26.00
2018-07-12T04:48:40.391Z,26.00
2018-07-12T04:51:08.484Z,26.00
2018-07-12T04:53:36.553Z,26.00
2018-07-12T04:56:04.709Z,26.00
2018-07-12T04:58:32.820Z,26.00
2018-07-12T05:01:00.840Z,26.00
2018-07-12T05:03:29.084Z,26.00
2018-07-12T05:05:57.145Z,26.00
2018-07-12T05:08:25.286Z,26.00
2018-07-12T05:10:53.351Z,26.00
2018-07-12T05:13:21.391Z,26.00
2018-07-12T05:15:49.690Z,26.00
2018-07-12T05:18:17.763Z,26.00
2018-07-12T05:20:45.802Z,26.00
2018-07-12T05:23:14.452Z,26.10
2018-07-12T05:25:42.810Z,26.00
2018-07-12T05:28:10.889Z,26.00
2018-07-12T05:30:38.951Z,26.10
2018-07-12T05:33:07.040Z,26.10
2018-07-12T05:35:37.244Z,26.10
2018-07-12T05:38:06.729Z,26.10
2018-07-12T05:40:36.009Z,26.10
2018-07-12T05:43:05.133Z,26.10
2018-07-12T05:45:34.184Z,26.10
2018-07-12T05:48:03.397Z,26.10
2018-07-12T05:50:32.505Z,26.10
2018-07-12T05:53:01.905Z,26.10
2018-07-12T05:55:31.034Z,26.10
2018-07-12T05:58:00.409Z,26.20
2018-07-12T06:00:29.490Z,26.20
2018-07-12T06:02:58.639Z,26.20
2018-07-12T06:05:28.251Z,26.20
2018-07-12T06:07:57.649Z,26.30
2018-07-12T06:10:27.063Z,26.30
2018-07-12T06:12:56.154Z,26.30
2018-07-12T06:15:25.753Z,26.30
2018-07-12T06:17:55.097Z,26.30
2018-07-12T06:20:24.214Z,26.30
2018-07-12T06:22:53.341Z,26.30
2018-07-12T06:25:22.414Z,26.30
2018-07-12T06:27:51.839Z,26.40
2018-07-12T06:30:21.214Z,26.40
2018-07-12T06:32:50.552Z,26.40
2018-07-12T06:35:19.618Z,26.40
2018-07-12T06:37:49.013Z,26.40
2018-07-12T06:40:18.228Z,26.40
2018-07-12T06:42:47.638Z,26.40
2018-07-12T06:45:16.730Z,26.40
2018-07-12T06:47:45.798Z,26.50
2018-07-12T06:50:15.237Z,26.50
2018-07-12T06:52:44.599Z,26.50
2018-07-12T06:55:13.949Z,26.60
2018-07-12T06:57:43.125Z,26.60
2018-07-12T07:00:12.189Z,26.60
2018-07-12T07:02:41.299Z,26.60
2018-07-12T07:05:10.437Z,26.60
2018-07-12T07:07:39.754Z,26.60
2018-07-12T07:10:08.842Z,26.60
2018-07-12T07:12:38.002Z,26.60
2018-07-12T07:15:07.058Z,26.60
2018-07-12T07:17:36.131Z,26.60
2018-07-12T07:20:05.240Z,26.60
2018-07-12T07:22:34.297Z,26.60
2018-07-12T07:25:03.432Z,26.60
2018-07-12T07:27:32.537Z,26.60
2018-07-12T07:30:01.634Z,26.60
2018-07-12T07:32:31.047Z,26.60
2018-07-12T07:35:00.170Z,26.60
2018-07-12T07:37:29.246Z,26.60
2018-07-12T07:39:58.363Z,26.60
2018-07-12T07:42:27.780Z,26.60
2018-07-12T07:44:56.834Z,26.60
2018-07-12T07:47:26.198Z,26.60
2018-07-12T07:52:24.565Z,26.60
2018-07-12T07:54:53.663Z,26.60
2018-07-12T07:57:22.845Z,26.60
2018-07-12T07:59:51.932Z,26.60
2018-07-12T08:02:21.041Z,26.60
2018-07-12T08:04:50.578Z,26.60
2018-07-12T08:07:19.915Z,26.60
2018-07-12T08:09:49.382Z,26.60
2018-07-12T08:12:18.731Z,26.60
2018-07-12T08:14:47.845Z,26.50
2018-07-12T08:17:16.994Z,26.60
2018-07-12T08:19:46.080Z,26.50
2018-07-12T08:22:15.333Z,26.50
2018-07-12T08:24:44.438Z,26.50
2018-07-12T08:27:13.533Z,26.50
2018-07-12T08:29:42.619Z,26.50
2018-07-12T08:32:11.723Z,26.50
2018-07-12T08:34:41.153Z,26.50
2018-07-12T08:39:38.975Z,26.50
2018-07-12T08:42:07.957Z,26.50
2018-07-12T08:44:37.164Z,26.50
2018-07-12T08:47:06.077Z,26.50
2018-07-12T08:49:35.512Z,26.50
2018-07-12T08:52:04.397Z,26.50
2018-07-12T08:54:33.374Z,26.50
2018-07-12T08:57:02.569Z,26.50
2018-07-12T08:59:31.758Z,26.50
2018-07-12T09:02:00.861Z,26.50
2018-07-12T09:04:29.960Z,26.50
2018-07-12T09:06:58.832Z,26.50
2018-07-12T09:09:28.093Z,26.50
2018-07-12T09:11:57.008Z,26.50
2018-07-12T09:14:25.929Z,26.50
2018-07-12T09:16:55.195Z,26.50
2018-07-12T09:19:24.086Z,26.50
2018-07-12T09:21:52.987Z,26.50
2018-07-12T09:24:22.106Z,26.50
2018-07-12T09:26:51.289Z,26.60
2018-07-12T09:29:20.277Z,26.50
2018-07-12T09:31:49.930Z,26.50
2018-07-12T09:34:18.823Z,26.60
2018-07-12T09:36:48.145Z,26.60
2018-07-12T09:39:18.516Z,26.60
2018-07-12T09:41:49.785Z,26.60
2018-07-12T09:44:19.017Z,26.60
2018-07-12T09:46:48.942Z,26.60
2018-07-12T09:49:17.909Z,26.70
2018-07-12T09:51:46.819Z,26.70
2018-07-12T09:54:15.721Z,26.70
2018-07-12T09:56:56.433Z,26.70
2018-07-12T09:59:25.369Z,26.70
2018-07-12T10:01:59.694Z,26.70
2018-07-12T10:04:28.621Z,26.70
2018-07-12T10:07:02.875Z,26.70
2018-07-12T10:12:10.302Z,26.70
2018-07-12T10:14:45.005Z,26.70
2018-07-12T10:17:19.489Z,26.70
2018-07-12T10:19:48.416Z,26.70
2018-07-12T10:22:17.467Z,26.70
2018-07-12T10:24:46.693Z,26.70
2018-07-12T10:27:15.578Z,26.70
2018-07-12T10:29:44.798Z,26.80
2018-07-12T10:32:13.753Z,26.80
2018-07-12T10:34:42.903Z,26.80
2018-07-12T10:37:11.780Z,26.80
2018-07-12T10:42:09.264Z,26.90
2018-07-12T10:44:38.161Z,26.90
2018-07-12T10:47:07.069Z,27.00
2018-07-12T10:49:36.406Z,27.00
2018-07-12T10:52:05.617Z,27.10
2018-07-12T10:54:35.119Z,27.20
2018-07-12T10:57:04.110Z,27.30
2018-07-12T10:59:33.188Z,27.40
2018-07-12T11:02:02.314Z,27.40
2018-07-12T11:04:31.234Z,27.40
2018-07-12T11:07:00.575Z,27.50
2018-07-12T11:09:29.774Z,27.50
2018-07-12T11:11:58.662Z,27.50
2018-07-12T11:14:27.554Z,27.50
2018-07-12T11:16:56.453Z,27.60
2018-07-12T11:19:25.335Z,27.60
2018-07-12T11:21:54.283Z,27.60
2018-07-12T11:24:23.745Z,27.60
2018-07-12T11:26:52.898Z,27.70
2018-07-12T11:29:32.085Z,27.70
2018-07-12T11:32:01.253Z,27.70
2018-07-12T11:34:30.161Z,27.80
2018-07-12T11:36:59.123Z,27.80
2018-07-12T11:39:28.502Z,27.80
2018-07-12T11:41:57.739Z,27.90
2018-07-12T11:44:29.671Z,28.00
2018-07-12T11:46:58.578Z,28.00
2018-07-12T11:49:27.710Z,28.10
2018-07-12T11:51:56.630Z,28.10
2018-07-12T11:54:25.536Z,28.10
2018-07-12T11:56:54.709Z,28.10
2018-07-12T11:59:23.605Z,28.10
2018-07-12T12:01:52.549Z,28.10
2018-07-12T12:04:21.761Z,28.10
2018-07-12T12:06:51.013Z,28.10
2018-07-12T12:09:19.913Z,28.10
2018-07-12T12:11:48.828Z,28.10
2018-07-12T12:14:18.018Z,28.10
2018-07-12T12:16:48.121Z,28.00
2018-07-12T12:19:17.699Z,28.00
2018-07-12T12:21:47.435Z,28.00
2018-07-12T12:24:16.662Z,28.00
2018-07-12T12:26:45.903Z,27.90
2018-07-12T12:29:15.089Z,27.90
2018-07-12T12:31:44.271Z,27.90
2018-07-12T12:34:13.269Z,27.80
2018-07-12T12:36:42.142Z,27.80
2018-07-12T12:39:11.061Z,27.80
2018-07-12T12:41:40.860Z,27.80
2018-07-12T12:44:10.155Z,27.80
2018-07-12T12:46:39.051Z,27.80
2018-07-12T12:49:08.242Z,27.80
2018-07-12T12:51:37.137Z,27.80
2018-07-12T12:54:06.017Z,27.80
2018-07-12T12:56:35.181Z,27.80
2018-07-12T12:59:04.071Z,27.80
2018-07-12T13:01:34.115Z,27.80
2018-07-12T13:04:03.325Z,27.80
2018-07-12T13:06:32.419Z,27.80
2018-07-12T13:09:01.337Z,27.80
2018-07-12T13:11:30.256Z,27.80
2018-07-12T13:13:59.136Z,27.80
2018-07-12T13:16:28.025Z,27.90
2018-07-12T13:18:56.947Z,27.80
2018-07-12T13:21:25.837Z,27.90
2018-07-12T13:23:55.066Z,27.90
2018-07-12T13:26:23.978Z,27.90
2018-07-12T13:28:53.219Z,27.90
2018-07-12T13:31:22.151Z,28.00
2018-07-12T13:33:51.342Z,28.00
2018-07-12T13:36:20.823Z,28.00
2018-07-12T13:38:49.702Z,28.00
2018-07-12T13:41:18.599Z,28.00
2018-07-12T13:43:47.826Z,28.00
2018-07-12T13:46:16.722Z,28.00
2018-07-12T13:48:45.635Z,28.00
2018-07-12T13:51:14.522Z,27.90
2018-07-12T13:53:43.475Z,27.90
2018-07-12T13:56:12.342Z,27.90
2018-07-12T13:58:41.249Z,27.80
2018-07-12T14:01:10.125Z,27.80
2018-07-12T14:03:39.036Z,27.80
2018-07-12T14:06:07.952Z,27.70
2018-07-12T14:08:37.125Z,27.70
2018-07-12T14:11:06.425Z,27.70
2018-07-12T14:13:35.562Z,27.60
2018-07-12T14:18:33.625Z,27.60
2018-07-12T14:21:02.825Z,27.60
2018-07-12T14:23:32.005Z,27.60
2018-07-12T14:26:00.995Z,27.60
2018-07-12T14:28:29.930Z,27.60
2018-07-12T14:33:27.483Z,27.60
2018-07-12T14:35:56.457Z,27.50
2018-07-12T14:38:25.822Z,27.60
2018-07-12T14:40:54.769Z,27.50
2018-07-12T14:43:23.913Z,27.50
2018-07-12T14:45:53.009Z,27.50
2018-07-12T14:48:22.238Z,27.50
2018-07-12T14:50:51.601Z,27.50
2018-07-12T14:53:20.478Z,27.50
2018-07-12T14:58:18.415Z,27.50
2018-07-12T15:00:47.299Z,27.50
2018-07-12T15:03:16.234Z,27.50
2018-07-12T15:05:45.497Z,27.50
2018-07-12T15:08:14.615Z,27.50
2018-07-12T15:10:43.534Z,27.50
2018-07-12T15:13:12.785Z,27.50
2018-07-12T15:15:41.677Z,27.40
2018-07-12T15:18:10.577Z,27.40
2018-07-12T15:20:39.463Z,27.40
2018-07-12T15:23:08.396Z,27.40
2018-07-12T15:25:37.441Z,27.40
2018-07-12T15:28:06.461Z,27.40
2018-07-12T15:30:35.654Z,27.40
2018-07-12T15:33:04.545Z,27.40
2018-07-12T15:35:33.622Z,27.40
2018-07-12T15:38:02.517Z,27.30
2018-07-12T15:40:32.011Z,27.30
2018-07-12T15:43:00.986Z,27.30
2018-07-12T15:45:30.386Z,27.30
2018-07-12T15:47:59.307Z,27.20
2018-07-12T15:50:28.330Z,27.20
2018-07-12T15:52:57.262Z,27.20
2018-07-12T15:55:26.805Z,27.20
2018-07-12T15:57:55.702Z,27.10
2018-07-12T16:00:24.860Z,27.10
2018-07-12T16:02:53.818Z,27.10
2018-07-12T16:05:23.002Z,27.10
2018-07-12T16:07:52.245Z,27.10
2018-07-12T16:10:21.256Z,27.10
2018-07-12T16:12:50.471Z,27.10
2018-07-12T16:15:19.668Z,27.10
2018-07-12T16:17:48.597Z,27.10
2018-07-12T16:20:17.509Z,27.10
2018-07-12T16:22:46.433Z,27.10
2018-07-12T16:25:15.347Z,27.10
2018-07-12T16:27:44.338Z,27.00
2018-07-12T16:30:13.290Z,27.00
2018-07-12T16:32:42.308Z,27.00
2018-07-12T16:35:11.566Z,27.00
2018-07-12T16:37:40.666Z,27.00
2018-07-12T16:40:09.683Z,27.00
2018-07-12T16:42:38.571Z,27.00
2018-07-12T16:45:07.901Z,27.00
2018-07-12T16:47:36.866Z,27.00
2018-07-12T16:50:05.963Z,27.00
2018-07-12T16:52:34.839Z,27.00
2018-07-12T16:55:03.760Z,26.90
2018-07-12T16:57:32.766Z,26.90
2018-07-12T17:00:01.918Z,27.00
2018-07-12T17:02:30.856Z,26.90
2018-07-12T17:04:59.798Z,26.90
2018-07-12T17:07:28.730Z,26.90
2018-07-12T17:09:57.938Z,26.90
2018-07-12T17:12:26.814Z,26.90
2018-07-12T17:14:55.763Z,26.90
2018-07-12T17:17:24.730Z,26.90
2018-07-12T17:19:54.413Z,26.90
2018-07-12T17:22:23.674Z,26.90
2018-07-12T17:24:52.627Z,26.90
2018-07-12T17:27:22.105Z,26.90
2018-07-12T17:29:51.059Z,26.90
2018-07-12T17:32:20.025Z,26.90
2018-07-12T17:34:48.910Z,26.90
2018-07-12T17:37:17.974Z,26.80
2018-07-12T17:39:46.907Z,26.90
2018-07-12T17:42:15.818Z,26.90
2018-07-12T17:44:44.745Z,26.90
2018-07-12T17:47:14.286Z,26.90
2018-07-12T17:49:43.226Z,26.80
2018-07-12T17:52:12.135Z,26.80
2018-07-12T17:54:41.389Z,26.80
2018-07-12T17:57:10.277Z,26.80
2018-07-12T17:59:39.639Z,26.80
2018-07-12T18:02:08.548Z,26.80
2018-07-12T18:04:37.730Z,26.80
2018-07-12T18:07:06.798Z,26.80
2018-07-12T18:09:35.797Z,26.80
2018-07-12T18:12:04.792Z,26.80
2018-07-12T18:14:33.894Z,26.80
2018-07-12T18:17:02.998Z,26.80
2018-07-12T18:19:31.922Z,26.80
2018-07-12T18:22:00.890Z,26.80
2018-07-12T18:24:30.054Z,26.80
2018-07-12T18:26:59.450Z,26.70
2018-07-12T18:29:28.398Z,26.70
2018-07-12T18:31:57.598Z,26.70
2018-07-12T18:34:26.770Z,26.70
2018-07-12T18:36:55.838Z,26.70
2018-07-12T18:39:24.848Z,26.70
2018-07-12T18:41:54.014Z,26.70
2018-07-12T18:44:23.297Z,26.70
2018-07-12T18:46:52.219Z,26.70
2018-07-12T18:49:21.104Z,26.70
2018-07-12T18:51:50.314Z,26.70
2018-07-12T18:54:19.425Z,26.70
2018-07-12T18:56:48.568Z,26.70
2018-07-12T18:59:17.642Z,26.70
2018-07-12T19:01:46.758Z,26.70
2018-07-12T19:04:15.777Z,26.70
2018-07-12T19:06:45.366Z,26.70
2018-07-12T19:09:14.307Z,26.70
2018-07-12T19:11:43.473Z,26.70
2018-07-12T19:14:12.443Z,26.70
2018-07-12T19:16:41.378Z,26.70
2018-07-12T19:19:10.281Z,26.70
2018-07-12T19:21:39.230Z,26.60
2018-07-12T19:24:08.424Z,26.70
2018-07-12T19:26:37.369Z,26.60
2018-07-12T19:29:06.405Z,26.60
2018-07-12T19:31:35.340Z,26.60
2018-07-12T19:34:04.527Z,26.60
2018-07-12T19:36:33.490Z,26.60
2018-07-12T19:39:02.399Z,26.60
2018-07-12T19:41:32.461Z,26.60
2018-07-12T19:44:01.630Z,26.60
2018-07-12T19:46:30.626Z,26.60
2018-07-12T19:48:59.516Z,26.60
2018-07-12T19:51:30.593Z,26.60
2018-07-12T19:53:59.505Z,26.60
2018-07-12T19:56:28.444Z,26.60
2018-07-12T19:58:57.382Z,26.60
2018-07-12T20:01:26.367Z,26.60
2018-07-12T20:03:55.292Z,26.50
2018-07-12T20:06:24.218Z,26.60
2018-07-12T20:08:53.646Z,26.50
2018-07-12T20:11:22.884Z,26.50
2018-07-12T20:13:51.790Z,26.50
2018-07-12T20:16:20.682Z,26.50
2018-07-12T20:18:49.573Z,26.50
2018-07-12T20:21:18.482Z,26.50
2018-07-12T20:23:47.666Z,26.50
2018-07-12T20:26:16.662Z,26.50
2018-07-12T20:28:45.641Z,26.50
2018-07-12T20:31:15.049Z,26.50
2018-07-12T20:33:44.020Z,26.50
2018-07-12T20:36:12.973Z,26.50
2018-07-12T20:38:41.986Z,26.50
2018-07-12T20:41:10.879Z,26.50
2018-07-12T20:43:39.812Z,26.50
2018-07-12T20:46:08.737Z,26.50
2018-07-12T20:48:38.048Z,26.50
2018-07-12T20:51:07.613Z,26.50
2018-07-12T20:53:36.534Z,26.50
2018-07-12T20:56:05.487Z,26.50
2018-07-12T20:58:34.439Z,26.50
2018-07-12T21:01:03.374Z,26.50
2018-07-12T21:03:32.453Z,26.50
2018-07-12T21:06:01.375Z,26.50
2018-07-12T21:08:30.565Z,26.50
2018-07-12T21:10:59.682Z,26.50
2018-07-12T21:13:29.130Z,26.50
2018-07-12T21:15:58.008Z,26.50
2018-07-12T21:18:27.446Z,26.50
2018-07-12T21:20:56.652Z,26.50
2018-07-12T21:23:25.558Z,26.50
2018-07-12T21:25:54.437Z,26.50
2018-07-12T21:28:23.358Z,26.50
2018-07-12T21:30:52.302Z,26.50
2018-07-12T21:33:21.726Z,26.50
2018-07-12T21:35:50.966Z,26.50
2018-07-12T21:38:19.841Z,26.50
2018-07-12T21:40:48.742Z,26.50
2018-07-12T21:43:18.006Z,26.50
2018-07-12T21:45:46.911Z,26.50
2018-07-12T21:48:15.825Z,26.50
2018-07-12T21:50:45.034Z,26.50
2018-07-12T21:53:13.975Z,26.50
2018-07-12T21:55:42.898Z,26.50
2018-07-12T21:58:11.812Z,26.50
2018-07-12T22:00:42.026Z,26.40
2018-07-12T22:03:12.909Z,26.40
2018-07-12T22:05:43.407Z,26.40
2018-07-12T22:08:18.509Z,26.40
2018-07-12T22:10:50.485Z,26.40
2018-07-12T22:15:52.105Z,26.40
2018-07-12T22:18:23.240Z,26.40
2018-07-12T22:20:53.839Z,26.40
2018-07-12T22:23:24.415Z,26.40
2018-07-12T22:25:55.058Z,26.40
2018-07-12T22:28:26.815Z,26.40
2018-07-12T22:30:57.590Z,26.40
2018-07-12T22:33:28.198Z,26.40
2018-07-12T22:35:58.997Z,26.40
2018-07-12T22:38:29.486Z,26.40
2018-07-12T22:41:00.287Z,26.40
2018-07-12T22:46:00.888Z,26.40
2018-07-12T22:48:31.635Z,26.40
2018-07-12T22:51:02.079Z,26.40
2018-07-12T22:53:31.995Z,26.40
2018-07-12T22:56:02.429Z,26.40
2018-07-12T22:58:33.878Z,26.40
2018-07-12T23:01:04.847Z,26.40
2018-07-12T23:03:34.743Z,26.40
2018-07-12T23:06:05.397Z,26.40
2018-07-12T23:11:06.360Z,26.40
2018-07-12T23:13:36.732Z,26.40
2018-07-12T23:16:08.013Z,26.40
2018-07-12T23:18:38.546Z,26.30
2018-07-12T23:21:09.410Z,26.40
2018-07-12T23:23:40.530Z,26.30
2018-07-12T23:26:11.511Z,26.40
2018-07-12T23:28:41.677Z,26.30
2018-07-12T23:31:12.243Z,26.30
2018-07-12T23:33:42.858Z,26.30
2018-07-12T23:36:13.262Z,26.40
2018-07-12T23:38:43.611Z,26.30
2018-07-12T23:41:14.145Z,26.30
2018-07-12T23:43:45.095Z,26.30
2018-07-12T23:48:48.020Z,26.30
2018-07-12T23:51:18.420Z,26.30
2018-07-12T23:53:49.665Z,26.30
2018-07-12T23:56:22.137Z,26.30
2018-07-12T23:58:52.401Z,26.30
